Terminal Aerodrome Forecast
Issued by NWS

Home | Current Version | Previous Version | Graphics & Text | Print | Product List | Glossary On
Versions: 1 2 3 4 5 6 7 8 9 10 11 12 13 14 15 16 17 18 19
000
FTUS43 KMPX 251135
TAFAXN
TAF
KAXN 251135Z 2512/2612 25011KT P6SM SCT015
     FM251500 25015G23KT P6SM OVC050
     FM251800 29020G30KT P6SM VCSH OVC025
     FM260200 30016G25KT P6SM OVC050=

USA.gov is the U.S. government's official web portal to all federal, state and local government web resources and services.